PST,Max TemperatureF,Mean TemperatureF,Min TemperatureF,Max Dew PointF,MeanDew PointF,Min DewpointF,Max Humidity, Mean Humidity, Min Humidity, Max Sea Level PressureIn, Mean Sea Level PressureIn, Min Sea Level PressureIn, Max VisibilityMiles, Mean VisibilityMiles, Min VisibilityMiles, Max Wind SpeedMPH, Mean Wind SpeedMPH, Max Gust SpeedMPH,PrecipitationIn, CloudCover, Events, WindDirDegrees
2012-11-1,55,45,35,48,43,37,100,81,61,30.05,29.89,29.82,10,6,0,16,4,21,0.09,7,Fog-Rain,171
2012-11-2,53,49,44,46,44,43,100,86,71,30.15,30.10,30.05,10,10,8,9,4,12,0.00,6,,37
2012-11-3,50,45,40,49,46,40,100,93,86,30.18,30.10,30.07,10,6,1,9,3,22,0.06,8,Rain,145
2012-11-4,56,52,47,52,49,46,100,92,83,30.34,30.27,30.16,10,10,7,12,5,14,0.00,8,,170
2012-11-5,58,46,33,52,47,35,100,89,77,30.27,30.24,30.17,10,7,0,13,4,17,0.00,5,Fog,200
2012-11-6,59,47,35,52,44,36,100,84,67,30.23,30.06,29.86,10,6,0,9,3,12,0.02,6,Fog-Rain,42
2012-11-7,52,38,23,50,32,22,100,69,38,30.06,29.97,29.86,10,9,4,17,7,23,T,2,Rain,192
2012-11-8,45,35,24,32,29,23,96,71,45,29.99,29.78,29.70,10,6,1,18,9,24,0.13,5,Snow,27
2012-11-9,32,29,25,30,28,23,100,92,84,29.95,29.81,29.73,10,4,1,14,9,18,0.17,8,Snow,32
2012-11-10,32,22,11,23,19,12,100,82,63,30.25,30.10,29.96,10,10,6,12,3,14,0.00,3,,38
2012-11-11,31,20,8,27,18,5,100,92,83,30.41,30.30,30.19,10,7,0,7,1,8,0.00,6,Fog,4
2012-11-12,34,32,29,34,31,27,100,93,85,30.34,30.24,30.19,3,2,0,7,1,8,0.51,8,Fog-Snow,45
2012-11-13,37,35,33,36,34,32,100,96,92,30.32,30.22,30.15,4,2,0,5,1,6,0.04,8,Fog,32
2012-11-14,35,34,32,34,33,32,100,98,96,30.40,30.25,30.14,10,4,0,10,3,13,0.00,8,Fog,196
2012-11-15,43,38,33,36,33,32,96,86,76,30.39,30.21,30.04,10,10,10,16,7,21,0.00,7,,28
2012-11-16,43,37,31,36,34,30,100,88,76,30.03,30.00,29.96,10,10,10,6,2,8,0.00,6,,3
2012-11-17,47,41,35,43,38,34,100,86,71,29.94,29.72,29.56,10,9,3,24,7,31,0.32,8,Rain,8
2012-11-18,44,40,35,37,34,32,92,79,65,29.94,29.87,29.72,10,10,6,23,7,30,0.05,7,Rain,157
2012-11-19,49,44,38,45,40,36,100,90,80,29.88,29.79,29.69,10,8,4,20,10,26,1.15,8,Rain,146
2012-11-20,48,43,38,46,44,39,100,93,86,29.83,29.75,29.69,10,8,1,17,6,22,0.44,7,Rain,156
2012-11-21,46,39,32,39,35,27,100,80,59,30.21,29.81,29.63,10,9,2,28,12,35,0.31,6,Rain,189
2012-11-22,40,33,26,32,30,26,100,85,70,30.51,30.44,30.24,10,10,10,12,5,32,0.00,5,,75
2012-11-23,42,39,35,40,34,29,100,85,70,30.40,30.22,30.04,10,9,6,10,4,15,0.25,8,Rain,37
2012-11-24,44,36,27,41,33,26,100,88,76,30.17,30.11,30.03,10,6,0,17,5,22,0.01,6,Fog,234
2012-11-25,39,29,19,31,27,19,100,82,64,30.40,30.25,30.10,10,8,0,7,2,9,0.00,5,Fog,299
2012-11-26,39,29,18,30,24,17,100,82,64,30.40,30.31,30.25,10,10,10,13,4,15,0.00,1,,1
2012-11-27,40,34,27,27,26,25,92,76,59,30.29,30.22,30.16,10,10,10,12,6,15,0.00,4,,7
2012-11-28,40,35,29,34,30,26,100,82,64,30.14,29.97,29.85,10,10,6,15,6,21,0.12,3,Rain,15
2012-11-29,41,35,28,40,34,28,100,96,92,29.92,29.83,29.68,10,6,0,9,2,12,0.15,7,Fog-Rain,26
2012-11-30,50,44,37,46,42,38,100,90,80,29.65,29.58,29.54,10,6,2,15,4,20,0.29,8,Rain,209